createdAt,value
2018-09-11T00:01:30.958Z,60.99
2018-09-11T00:03:59.322Z,61.51
2018-09-11T00:06:27.694Z,61.74
2018-09-11T00:08:56.080Z,60.90
2018-09-11T00:11:24.483Z,61.14
2018-09-11T00:13:52.953Z,61.81
2018-09-11T00:16:21.316Z,61.68
2018-09-11T00:18:49.678Z,61.64
2018-09-11T00:21:18.051Z,62.24
2018-09-11T00:23:46.385Z,62.69
2018-09-11T00:26:14.747Z,62.42
2018-09-11T00:28:43.141Z,62.08
2018-09-11T00:31:11.489Z,62.25
2018-09-11T00:33:39.848Z,61.65
2018-09-11T00:36:08.195Z,61.40
2018-09-11T00:38:36.556Z,61.63
2018-09-11T00:41:04.893Z,61.66
2018-09-11T00:43:33.239Z,61.30
2018-09-11T00:46:01.558Z,62.96
2018-09-11T00:48:29.897Z,62.53
2018-09-11T00:50:58.473Z,62.18
2018-09-11T00:53:26.801Z,61.53
2018-09-11T00:55:55.160Z,61.34
2018-09-11T00:58:23.490Z,62.01
2018-09-11T01:00:52.006Z,62.08
2018-09-11T01:03:20.348Z,61.91
2018-09-11T01:05:48.688Z,61.69
2018-09-11T01:08:17.564Z,62.07
2018-09-11T01:10:46.023Z,63.06
2018-09-11T01:13:14.338Z,62.61
2018-09-11T01:15:42.708Z,62.67
2018-09-11T01:18:11.071Z,62.12
2018-09-11T01:20:39.461Z,63.13
2018-09-11T01:23:07.834Z,63.22
2018-09-11T01:25:36.304Z,62.24
2018-09-11T01:28:04.675Z,62.79
2018-09-11T01:30:33.572Z,62.82
2018-09-11T01:33:01.888Z,62.36
2018-09-11T01:35:30.220Z,63.56
2018-09-11T01:37:58.540Z,62.50
2018-09-11T01:40:26.902Z,63.00
2018-09-11T01:42:55.798Z,62.42
2018-09-11T01:45:24.151Z,63.04
2018-09-11T01:47:52.499Z,62.60
2018-09-11T01:50:21.416Z,62.95
2018-09-11T01:52:49.769Z,62.54
2018-09-11T01:55:18.112Z,62.74
2018-09-11T01:57:46.492Z,64.06
2018-09-11T02:00:17.513Z,62.67
2018-09-11T02:02:46.618Z,62.39
2018-09-11T02:05:14.995Z,63.37
2018-09-11T02:07:44.210Z,63.34
2018-09-11T02:10:13.240Z,63.00
2018-09-11T02:12:42.461Z,63.38
2018-09-11T02:15:11.495Z,63.02
2018-09-11T02:17:40.274Z,63.25
2018-09-11T02:20:08.750Z,64.11
2018-09-11T02:22:37.275Z,63.58
2018-09-11T02:25:05.786Z,64.58
2018-09-11T02:27:34.304Z,64.18
2018-09-11T02:30:02.666Z,63.77
2018-09-11T02:32:31.006Z,64.94
2018-09-11T02:34:59.367Z,64.35
2018-09-11T02:37:27.761Z,63.92
2018-09-11T02:39:56.122Z,64.67
2018-09-11T02:42:24.472Z,63.97
2018-09-11T02:44:52.836Z,65.62
2018-09-11T02:47:21.217Z,64.55
2018-09-11T02:49:49.597Z,64.38
2018-09-11T02:52:17.982Z,65.64
2018-09-11T02:54:46.363Z,66.44
2018-09-11T02:57:14.718Z,65.04
2018-09-11T02:59:43.548Z,64.68
2018-09-11T03:02:12.027Z,64.50
2018-09-11T03:04:40.374Z,64.33
2018-09-11T03:07:08.718Z,64.88
2018-09-11T03:09:37.060Z,65.80
2018-09-11T03:12:05.505Z,64.70
2018-09-11T03:14:33.864Z,65.59
2018-09-11T03:17:02.220Z,64.87
2018-09-11T03:19:30.576Z,65.76
2018-09-11T03:21:59.023Z,65.37
2018-09-11T03:24:27.369Z,65.66
2018-09-11T03:26:55.716Z,65.63
2018-09-11T03:29:24.092Z,66.54
2018-09-11T03:31:52.460Z,66.37
2018-09-11T03:34:20.830Z,66.17
2018-09-11T03:36:49.312Z,66.47
2018-09-11T03:39:17.672Z,67.41
2018-09-11T03:41:46.034Z,67.31
2018-09-11T03:44:14.437Z,65.95
2018-09-11T03:46:42.798Z,66.06
2018-09-11T03:49:11.135Z,65.63
2018-09-11T03:51:39.483Z,66.52
2018-09-11T03:54:07.814Z,65.03
2018-09-11T03:56:36.172Z,66.69
2018-09-11T03:59:04.628Z,66.28
2018-09-11T04:01:32.968Z,67.21
2018-09-11T04:04:01.341Z,67.68
2018-09-11T04:06:29.747Z,67.52
2018-09-11T04:08:58.105Z,66.72
2018-09-11T04:11:26.477Z,67.54
2018-09-11T04:13:54.815Z,66.84
2018-09-11T04:16:23.164Z,66.60
2018-09-11T04:18:51.508Z,66.14
2018-09-11T04:21:19.851Z,65.58
2018-09-11T04:23:48.191Z,66.89
2018-09-11T04:26:16.560Z,66.10
2018-09-11T04:28:44.892Z,66.84
2018-09-11T04:31:13.262Z,66.48
2018-09-11T04:33:41.617Z,66.87
2018-09-11T04:36:10.027Z,67.37
2018-09-11T04:38:38.358Z,67.55
2018-09-11T04:41:06.719Z,67.26
2018-09-11T04:43:35.090Z,66.48
2018-09-11T04:46:03.440Z,67.04
2018-09-11T04:48:31.779Z,67.42
2018-09-11T04:51:00.196Z,67.17
2018-09-11T04:53:28.540Z,67.40
2018-09-11T04:55:56.879Z,67.04
2018-09-11T04:58:25.268Z,67.12
2018-09-11T05:00:53.588Z,67.70
2018-09-11T05:03:21.922Z,67.38
2018-09-11T05:05:50.236Z,67.43
2018-09-11T05:08:18.575Z,66.59
2018-09-11T05:10:46.915Z,67.82
2018-09-11T05:13:15.336Z,67.15
2018-09-11T05:15:43.676Z,66.68
2018-09-11T05:18:12.058Z,66.70
2018-09-11T05:20:40.432Z,65.58
2018-09-11T05:23:08.773Z,65.87
2018-09-11T05:25:37.130Z,66.57
2018-09-11T05:28:05.506Z,65.99
2018-09-11T05:30:33.847Z,65.67
2018-09-11T05:33:02.202Z,66.14
2018-09-11T05:35:30.550Z,65.48
2018-09-11T05:37:59.434Z,64.80
2018-09-11T05:40:27.770Z,65.90
2018-09-11T05:42:56.113Z,65.77
2018-09-11T05:45:24.463Z,65.68
2018-09-11T05:47:52.806Z,66.00
2018-09-11T05:50:21.756Z,66.16
2018-09-11T05:52:50.140Z,65.59
2018-09-11T05:55:18.491Z,66.34
2018-09-11T05:57:46.865Z,66.00
2018-09-11T06:00:15.210Z,65.93
2018-09-11T06:02:43.555Z,66.48
2018-09-11T06:05:11.930Z,65.71
2018-09-11T06:07:40.268Z,65.60
2018-09-11T06:10:09.188Z,65.92
2018-09-11T06:12:37.563Z,65.27
2018-09-11T06:15:05.976Z,65.41
2018-09-11T06:17:34.380Z,66.21
2018-09-11T06:20:02.734Z,65.45
2018-09-11T06:22:31.110Z,64.90
2018-09-11T06:24:59.452Z,65.70
2018-09-11T06:27:27.829Z,64.34
2018-09-11T06:29:56.208Z,64.74
2018-09-11T06:32:24.551Z,64.36
2018-09-11T06:34:53.052Z,64.21
2018-09-11T06:37:22.140Z,64.78
2018-09-11T06:39:50.518Z,64.55
2018-09-11T06:42:18.865Z,64.64
2018-09-11T06:44:47.320Z,64.68
2018-09-11T06:47:15.852Z,63.81
2018-09-11T06:49:44.295Z,64.03
2018-09-11T06:52:12.729Z,63.63
2018-09-11T06:54:41.165Z,63.47
2018-09-11T06:57:09.546Z,62.87
2018-09-11T06:59:38.659Z,63.38
2018-09-11T07:02:07.166Z,63.24
2018-09-11T07:04:35.513Z,63.26
2018-09-11T07:07:03.909Z,61.81
2018-09-11T07:09:32.266Z,62.08
2018-09-11T07:12:00.603Z,61.88
2018-09-11T07:14:28.938Z,61.73
2018-09-11T07:16:57.317Z,61.50
2018-09-11T07:19:25.696Z,60.54
2018-09-11T07:21:54.134Z,59.88
2018-09-11T07:24:22.511Z,59.79
2018-09-11T07:26:50.944Z,59.16
2018-09-11T07:29:19.331Z,59.54
2018-09-11T07:31:47.713Z,58.07
2018-09-11T07:34:16.102Z,57.31
2018-09-11T07:36:44.513Z,58.51
2018-09-11T07:39:12.884Z,57.65
2018-09-11T07:41:41.268Z,55.29
2018-09-11T07:44:09.644Z,54.20
2018-09-11T07:46:38.003Z,54.70
2018-09-11T07:49:06.388Z,52.56
2018-09-11T07:51:34.781Z,52.97
2018-09-11T07:54:03.135Z,51.98
2018-09-11T07:56:31.491Z,51.09
2018-09-11T07:58:59.879Z,52.24
2018-09-11T08:01:28.217Z,48.28
2018-09-11T08:03:56.575Z,49.02
2018-09-11T08:06:24.963Z,47.95
2018-09-11T08:08:53.365Z,47.89
2018-09-11T08:11:21.748Z,47.97
2018-09-11T08:13:50.140Z,47.33
2018-09-11T08:16:18.666Z,48.34
2018-09-11T08:18:47.010Z,45.79
2018-09-11T08:21:15.380Z,47.44
2018-09-11T08:23:43.742Z,46.81
2018-09-11T08:26:12.092Z,44.87
2018-09-11T08:28:40.522Z,45.66
2018-09-11T08:31:08.899Z,46.77
2018-09-11T08:33:37.409Z,44.23
2018-09-11T08:36:06.377Z,43.68
2018-09-11T08:38:34.755Z,43.66
2018-09-11T08:41:03.742Z,44.63
2018-09-11T08:43:32.071Z,43.41
2018-09-11T08:46:00.461Z,42.56
2018-09-11T08:48:28.837Z,42.29
2018-09-11T08:50:57.228Z,42.16
2018-09-11T08:53:25.600Z,42.40
2018-09-11T08:55:53.954Z,42.11
2018-09-11T08:58:22.356Z,42.37
2018-09-11T09:00:50.709Z,42.86
2018-09-11T09:03:19.046Z,43.32
2018-09-11T09:05:47.441Z,41.96
2018-09-11T09:08:15.769Z,41.05
2018-09-11T09:10:44.109Z,40.06
2018-09-11T09:13:12.442Z,41.82
2018-09-11T09:15:40.829Z,42.44
2018-09-11T09:18:09.153Z,41.40
2018-09-11T09:20:37.490Z,41.03
2018-09-11T09:23:05.872Z,40.71
2018-09-11T09:25:34.187Z,39.92
2018-09-11T09:28:02.529Z,40.20
2018-09-11T09:30:30.872Z,39.56
2018-09-11T09:32:59.225Z,40.39
2018-09-11T09:35:27.566Z,40.26
2018-09-11T09:37:56.010Z,39.82
2018-09-11T09:40:24.425Z,40.95
2018-09-11T09:42:52.775Z,40.12
2018-09-11T09:45:21.148Z,40.90
2018-09-11T09:47:49.664Z,41.90
2018-09-11T09:50:21.689Z,41.79
2018-09-11T09:52:50.076Z,41.95
2018-09-11T09:55:18.469Z,42.62
2018-09-11T09:57:47.211Z,42.14
2018-09-11T10:00:19.757Z,42.19
2018-09-11T10:02:48.134Z,43.15
2018-09-11T10:05:16.508Z,43.51
2018-09-11T10:07:44.889Z,42.97
2018-09-11T10:10:13.262Z,42.52
2018-09-11T10:12:41.618Z,40.36
2018-09-11T10:15:09.976Z,40.96
2018-09-11T10:17:38.384Z,38.81
2018-09-11T10:20:06.789Z,38.80
2018-09-11T10:22:35.267Z,36.82
2018-09-11T10:25:03.848Z,37.38
2018-09-11T10:27:32.365Z,35.68
2018-09-11T10:30:00.709Z,36.08
2018-09-11T10:32:29.084Z,33.69
2018-09-11T10:34:57.430Z,34.25
2018-09-11T10:37:25.763Z,31.56
2018-09-11T10:39:54.090Z,31.37
2018-09-11T10:42:22.467Z,30.96
2018-09-11T10:44:50.921Z,32.40
2018-09-11T10:47:19.298Z,30.11
2018-09-11T10:49:47.902Z,32.90
2018-09-11T10:52:16.260Z,32.00
2018-09-11T10:54:44.612Z,32.08
2018-09-11T10:57:12.960Z,32.73
2018-09-11T10:59:41.290Z,32.49
2018-09-11T11:02:09.753Z,32.38
2018-09-11T11:04:38.127Z,31.90
2018-09-11T11:07:06.603Z,31.54
2018-09-11T11:09:35.141Z,32.40
2018-09-11T11:12:03.533Z,33.64
2018-09-11T11:14:31.892Z,32.33
2018-09-11T11:17:00.308Z,33.12
2018-09-11T11:19:28.652Z,33.54
2018-09-11T11:21:57.015Z,33.61
2018-09-11T11:24:25.366Z,34.57
2018-09-11T11:26:54.331Z,34.13
2018-09-11T11:29:22.638Z,34.30
2018-09-11T11:31:51.010Z,35.06
2018-09-11T11:34:19.334Z,35.03
2018-09-11T11:36:47.778Z,35.04
2018-09-11T11:39:16.057Z,35.64
2018-09-11T11:41:44.583Z,35.95
2018-09-11T11:44:12.904Z,36.06
2018-09-11T11:46:41.236Z,35.33
2018-09-11T11:49:09.577Z,36.52
2018-09-11T11:51:37.913Z,37.25
2018-09-11T11:54:06.916Z,35.72
2018-09-11T11:56:35.257Z,35.68
2018-09-11T11:59:03.591Z,35.39
2018-09-11T12:01:32.027Z,34.73
2018-09-11T12:04:00.377Z,35.50
2018-09-11T12:06:28.728Z,36.05
2018-09-11T12:08:57.101Z,35.59
2018-09-11T12:11:25.519Z,36.22
2018-09-11T12:13:54.070Z,36.43
2018-09-11T12:16:22.420Z,36.23
2018-09-11T12:18:50.770Z,36.11
2018-09-11T12:21:19.119Z,36.43
2018-09-11T12:23:47.484Z,36.58
2018-09-11T12:26:15.866Z,36.66
2018-09-11T12:28:44.212Z,37.07
2018-09-11T12:31:12.647Z,36.67
2018-09-11T12:33:41.028Z,37.39
2018-09-11T12:36:09.412Z,36.81
2018-09-11T12:38:37.789Z,36.78
2018-09-11T12:41:06.488Z,37.90
2018-09-11T12:43:34.841Z,38.03
2018-09-11T12:46:03.349Z,36.71
2018-09-11T12:48:31.765Z,37.98
2018-09-11T12:51:00.142Z,37.28
2018-09-11T12:53:28.520Z,37.30
2018-09-11T12:55:56.936Z,37.27
2018-09-11T12:58:25.644Z,38.10
2018-09-11T13:00:54.033Z,37.17
2018-09-11T13:03:22.384Z,38.20
2018-09-11T13:05:50.735Z,37.60
2018-09-11T13:08:19.064Z,37.75
2018-09-11T13:10:47.483Z,38.91
2018-09-11T13:13:15.824Z,38.32
2018-09-11T13:15:44.164Z,39.85
2018-09-11T13:18:12.540Z,39.20
2018-09-11T13:20:40.897Z,38.30
2018-09-11T13:23:09.421Z,38.87
2018-09-11T13:25:37.753Z,38.74
2018-09-11T13:28:06.083Z,38.94
2018-09-11T13:30:34.414Z,38.96
2018-09-11T13:33:02.772Z,38.10
2018-09-11T13:35:31.612Z,39.70
2018-09-11T13:37:59.957Z,41.04
2018-09-11T13:40:28.283Z,38.98
2018-09-11T13:42:56.642Z,38.99
2018-09-11T13:45:24.991Z,39.43
2018-09-11T13:47:53.352Z,39.45
2018-09-11T13:50:21.986Z,39.24
2018-09-11T13:52:50.372Z,39.38
2018-09-11T13:55:18.677Z,39.32
2018-09-11T13:57:47.469Z,39.03
2018-09-11T14:00:15.835Z,39.09
2018-09-11T14:02:44.255Z,39.54
2018-09-11T14:05:12.574Z,40.35
2018-09-11T14:07:40.912Z,38.66
2018-09-11T14:10:09.255Z,39.59
2018-09-11T14:12:37.640Z,38.96
2018-09-11T14:15:06.511Z,39.05
2018-09-11T14:17:35.306Z,39.44
2018-09-11T14:20:04.104Z,38.86
2018-09-11T14:22:33.427Z,39.33
2018-09-11T14:25:01.786Z,38.77
2018-09-11T14:27:30.152Z,39.88
2018-09-11T14:29:58.528Z,40.05
2018-09-11T14:32:27.120Z,40.13
2018-09-11T14:34:55.504Z,39.91
2018-09-11T14:37:23.885Z,39.45
2018-09-11T14:39:52.237Z,39.69
2018-09-11T14:42:20.558Z,39.10
2018-09-11T14:44:48.937Z,40.03
2018-09-11T14:47:17.316Z,39.87
2018-09-11T14:49:45.649Z,41.21
2018-09-11T14:52:14.006Z,40.36
2018-09-11T14:54:42.404Z,39.36
2018-09-11T14:57:10.788Z,40.94
2018-09-11T14:59:39.138Z,40.15
2018-09-11T15:02:07.552Z,40.10
2018-09-11T15:04:35.907Z,40.40
2018-09-11T15:07:04.262Z,40.48
2018-09-11T15:09:32.649Z,40.17
2018-09-11T15:12:01.047Z,40.35
2018-09-11T15:14:29.413Z,40.60
2018-09-11T15:16:57.822Z,40.39
2018-09-11T15:19:26.244Z,40.45
2018-09-11T15:21:54.624Z,40.68
2018-09-11T15:24:23.031Z,40.24
2018-09-11T15:26:51.507Z,40.31
2018-09-11T15:29:19.981Z,41.28
2018-09-11T15:31:48.327Z,40.69
2018-09-11T15:34:16.754Z,40.62
2018-09-11T15:36:45.112Z,41.18
2018-09-11T15:39:13.581Z,41.38
2018-09-11T15:41:41.982Z,42.12
2018-09-11T15:44:10.351Z,40.90
2018-09-11T15:46:38.777Z,41.08
2018-09-11T15:49:07.184Z,41.69
2018-09-11T15:51:35.552Z,41.98
2018-09-11T15:54:03.994Z,41.98
2018-09-11T15:56:32.318Z,40.88
2018-09-11T15:59:00.698Z,41.95
2018-09-11T16:01:29.050Z,41.43
2018-09-11T16:03:57.388Z,40.75
2018-09-11T16:06:25.769Z,40.64
2018-09-11T16:08:54.117Z,41.67
2018-09-11T16:11:22.511Z,41.87
2018-09-11T16:13:50.956Z,40.44
2018-09-11T16:16:19.357Z,41.09
2018-09-11T16:20:12.213Z,40.74
2018-09-11T16:22:40.593Z,40.38
2018-09-11T16:25:09.003Z,40.34
2018-09-11T16:27:37.399Z,41.51
2018-09-11T16:30:06.235Z,40.17
2018-09-11T16:32:34.614Z,41.10
2018-09-11T16:35:03.011Z,39.68
2018-09-11T16:37:31.499Z,39.73
2018-09-11T16:39:59.859Z,40.83
2018-09-11T16:42:28.296Z,40.62
2018-09-11T16:44:56.688Z,39.94
2018-09-11T16:47:25.080Z,40.13
2018-09-11T16:49:53.517Z,41.28
2018-09-11T16:52:21.913Z,41.08
2018-09-11T16:54:50.273Z,40.94
2018-09-11T16:57:18.694Z,42.27
2018-09-11T16:59:47.088Z,41.49
2018-09-11T17:02:15.611Z,40.93
2018-09-11T17:04:43.974Z,41.41
2018-09-11T17:07:12.367Z,41.67
2018-09-11T17:09:40.853Z,41.04
2018-09-11T17:12:09.356Z,42.01
2018-09-11T17:14:37.747Z,41.18
2018-09-11T17:17:06.352Z,41.08
2018-09-11T17:19:34.890Z,41.54
2018-09-11T17:22:03.302Z,41.41
2018-09-11T17:24:31.762Z,41.55
2018-09-11T17:27:00.361Z,41.75
2018-09-11T17:29:28.779Z,42.54
2018-09-11T17:31:57.148Z,41.75
2018-09-11T17:34:25.663Z,41.93
2018-09-11T17:36:54.048Z,42.63
2018-09-11T17:39:22.430Z,43.33
2018-09-11T17:41:50.794Z,42.79
2018-09-11T17:44:19.612Z,43.58
2018-09-11T17:46:48.757Z,44.10
2018-09-11T17:49:17.167Z,43.78
2018-09-11T17:51:45.546Z,43.56
2018-09-11T17:54:13.892Z,42.92
2018-09-11T17:56:43.149Z,43.59
2018-09-11T17:59:11.559Z,44.39
2018-09-11T18:01:39.958Z,44.40
2018-09-11T18:04:08.405Z,44.69
2018-09-11T18:06:36.783Z,46.13
2018-09-11T18:09:07.132Z,45.45
2018-09-11T18:11:35.530Z,45.29
2018-09-11T18:14:04.010Z,45.90
2018-09-11T18:16:32.409Z,45.82
2018-09-11T18:19:00.790Z,45.90
2018-09-11T18:21:29.721Z,45.52
2018-09-11T18:23:58.404Z,45.21
2018-09-11T18:26:26.742Z,45.06
2018-09-11T18:28:55.108Z,45.85
2018-09-11T18:31:23.939Z,46.19
2018-09-11T18:33:52.358Z,46.03
2018-09-11T18:36:20.717Z,45.86
2018-09-11T18:38:49.344Z,46.42
2018-09-11T18:41:17.882Z,47.13
2018-09-11T18:43:46.244Z,46.19
2018-09-11T18:46:14.660Z,47.44
2018-09-11T18:48:43.957Z,46.48
2018-09-11T18:51:13.490Z,47.20
2018-09-11T18:53:42.018Z,47.51
2018-09-11T18:56:10.405Z,47.34
2018-09-11T18:58:38.812Z,47.64
2018-09-11T19:01:07.188Z,48.54
2018-09-11T19:03:35.606Z,47.39
2018-09-11T19:06:04.016Z,46.64
2018-09-11T19:08:32.528Z,47.74
2018-09-11T19:11:01.435Z,48.55
2018-09-11T19:13:29.828Z,48.28
2018-09-11T19:15:58.218Z,48.12
2018-09-11T19:18:26.631Z,48.12
2018-09-11T19:20:55.690Z,48.10
2018-09-11T19:23:24.111Z,47.19
2018-09-11T19:25:52.992Z,47.55
2018-09-11T19:28:21.520Z,47.16
2018-09-11T19:30:49.948Z,46.90
2018-09-11T19:33:18.295Z,47.12
2018-09-11T19:35:46.783Z,46.13
2018-09-11T19:38:15.304Z,46.51
2018-09-11T19:40:45.021Z,47.05
2018-09-11T19:43:13.403Z,46.24
2018-09-11T19:45:41.949Z,47.11
2018-09-11T19:48:10.363Z,47.48
2018-09-11T19:50:38.881Z,47.51
2018-09-11T19:53:07.213Z,48.64
2018-09-11T19:55:35.586Z,47.04
2018-09-11T19:58:03.969Z,47.31
2018-09-11T20:00:32.906Z,48.28
2018-09-11T20:03:01.341Z,47.68
2018-09-11T20:05:29.725Z,47.01
2018-09-11T20:07:58.276Z,47.51
2018-09-11T20:10:26.648Z,48.88
2018-09-11T20:12:55.021Z,48.57
2018-09-11T20:15:23.380Z,48.29
2018-09-11T20:17:52.085Z,48.27
2018-09-11T20:20:21.476Z,48.48
2018-09-11T20:22:49.847Z,48.57
2018-09-11T20:25:18.190Z,49.22
2018-09-11T20:27:46.541Z,47.89
2018-09-11T20:30:14.908Z,49.69
2018-09-11T20:32:43.326Z,48.72
2018-09-11T20:35:11.704Z,48.71
2018-09-11T20:37:40.093Z,48.02
2018-09-11T20:40:08.481Z,48.24
2018-09-11T20:42:36.881Z,48.29
2018-09-11T20:45:05.336Z,48.38
2018-09-11T20:47:33.669Z,48.21
2018-09-11T20:50:02.042Z,48.18
2018-09-11T20:52:30.502Z,48.66
2018-09-11T20:54:58.876Z,49.20
2018-09-11T20:57:27.254Z,49.48
2018-09-11T20:59:55.635Z,49.93
2018-09-11T21:02:24.034Z,49.20
2018-09-11T21:04:52.421Z,49.31
2018-09-11T21:07:20.801Z,49.45
2018-09-11T21:09:49.208Z,48.72
2018-09-11T21:12:17.584Z,50.10
2018-09-11T21:14:45.960Z,49.28
2018-09-11T21:17:14.313Z,49.88
2018-09-11T21:19:42.668Z,50.11
2018-09-11T21:22:11.001Z,49.34
2018-09-11T21:24:39.381Z,49.59
2018-09-11T21:27:07.740Z,50.42
2018-09-11T21:29:36.082Z,50.20
2018-09-11T21:32:04.418Z,50.21
2018-09-11T21:34:32.765Z,50.30
2018-09-11T21:37:01.115Z,50.73
2018-09-11T21:39:29.504Z,50.82
2018-09-11T21:41:57.844Z,51.30
2018-09-11T21:44:26.196Z,51.85
2018-09-11T21:46:54.586Z,52.02
2018-09-11T21:49:22.942Z,51.47
2018-09-11T21:51:51.293Z,51.28
2018-09-11T21:54:19.667Z,52.33
2018-09-11T21:56:47.987Z,53.19
2018-09-11T21:59:16.328Z,52.85
2018-09-11T22:01:48.834Z,52.36
2018-09-11T22:04:17.817Z,52.72
2018-09-11T22:06:46.140Z,53.38
2018-09-11T22:09:14.516Z,52.58
2018-09-11T22:11:42.859Z,53.00
2018-09-11T22:14:11.549Z,52.58
2018-09-11T22:16:40.524Z,53.34
2018-09-11T22:19:08.896Z,52.09
2018-09-11T22:21:37.904Z,52.45
2018-09-11T22:24:06.244Z,53.11
2018-09-11T22:26:35.072Z,53.07
2018-09-11T22:29:03.552Z,53.30
2018-09-11T22:31:32.379Z,52.98
2018-09-11T22:34:00.922Z,53.22
2018-09-11T22:36:29.249Z,53.38
2018-09-11T22:38:57.619Z,53.29
2018-09-11T22:41:25.980Z,53.64
2018-09-11T22:43:54.466Z,54.09
2018-09-11T22:46:23.724Z,54.06
2018-09-11T22:48:52.052Z,54.04
2018-09-11T22:51:20.378Z,54.18
2018-09-11T22:53:49.397Z,55.36
2018-09-11T22:56:17.747Z,53.97
2018-09-11T22:58:46.101Z,53.98
2018-09-11T23:01:14.433Z,55.27
2018-09-11T23:03:42.785Z,54.72
2018-09-11T23:06:11.129Z,54.16
2018-09-11T23:08:39.465Z,54.79
2018-09-11T23:11:07.903Z,54.73
2018-09-11T23:13:36.220Z,54.43
2018-09-11T23:16:04.592Z,54.68
2018-09-11T23:18:32.928Z,55.13
2018-09-11T23:21:01.289Z,54.96
2018-09-11T23:23:29.668Z,54.36
2018-09-11T23:25:57.993Z,56.26
2018-09-11T23:28:26.321Z,56.42
2018-09-11T23:30:54.733Z,55.43
2018-09-11T23:33:23.085Z,55.70
2018-09-11T23:35:51.424Z,56.21
2018-09-11T23:38:19.746Z,57.25
2018-09-11T23:40:48.100Z,55.47
2018-09-11T23:43:16.587Z,56.70
2018-09-11T23:45:44.939Z,56.38
2018-09-11T23:48:13.317Z,57.16
2018-09-11T23:50:41.649Z,56.81
2018-09-11T23:53:10.041Z,57.75
2018-09-11T23:55:38.371Z,56.80
2018-09-11T23:58:06.702Z,56.25
